createdAt,value
2023-01-21T00:01:22.033Z,24.90
2023-01-21T00:03:48.232Z,25.77
2023-01-21T00:06:14.737Z,28.07
2023-01-21T00:08:41.071Z,29.47
2023-01-21T00:11:09.637Z,26.40
2023-01-21T00:13:36.013Z,26.97
2023-01-21T00:16:02.500Z,30.47
2023-01-21T00:18:30.131Z,29.23
2023-01-21T00:20:56.412Z,27.67
2023-01-21T00:23:22.651Z,27.10
2023-01-21T00:25:48.770Z,26.40
2023-01-21T00:28:15.739Z,35.67
2023-01-21T00:30:41.940Z,27.23
2023-01-21T00:33:08.161Z,26.10
2023-01-21T00:35:34.258Z,33.53
2023-01-21T00:38:00.389Z,31.87
2023-01-21T00:40:26.581Z,28.10
2023-01-21T00:42:52.692Z,29.50
2023-01-21T00:45:19.457Z,30.57
2023-01-21T00:47:46.439Z,30.13
2023-01-21T00:50:12.592Z,31.00
2023-01-21T00:52:38.690Z,33.63
2023-01-21T00:55:05.559Z,26.87
2023-01-21T00:57:32.060Z,30.10
2023-01-21T00:59:58.370Z,31.57
2023-01-21T01:02:25.161Z,33.97
2023-01-21T01:04:51.301Z,28.50
2023-01-21T01:07:17.409Z,26.80
2023-01-21T01:09:43.535Z,29.47
2023-01-21T01:12:09.660Z,25.40
2023-01-21T01:14:35.779Z,31.27
2023-01-21T01:17:02.199Z,30.13
2023-01-21T01:19:29.118Z,34.80
2023-01-21T01:21:55.217Z,30.93
2023-01-21T01:24:21.334Z,26.50
2023-01-21T01:26:47.469Z,25.40
2023-01-21T01:29:13.965Z,29.97
2023-01-21T01:31:40.155Z,30.27
2023-01-21T01:34:06.358Z,26.43
2023-01-21T01:36:33.099Z,28.67
2023-01-21T01:38:59.223Z,31.47
2023-01-21T01:41:26.817Z,36.17
2023-01-21T01:43:56.509Z,29.53
2023-01-21T01:46:23.558Z,33.73
2023-01-21T01:48:52.096Z,33.10
2023-01-21T01:51:21.015Z,33.93
2023-01-21T01:53:47.959Z,32.87
2023-01-21T01:56:14.801Z,34.77
2023-01-21T01:58:41.412Z,37.93
2023-01-21T02:01:07.590Z,39.67
2023-01-21T02:03:44.961Z,33.53
2023-01-21T02:06:11.642Z,35.40
2023-01-21T02:08:37.986Z,36.13
2023-01-21T02:11:10.674Z,37.10
2023-01-21T02:13:36.947Z,32.70
2023-01-21T02:16:17.039Z,32.37
2023-01-21T02:18:48.402Z,43.20
2023-01-21T02:21:47.828Z,31.93
2023-01-21T02:24:44.345Z,32.20
2023-01-21T02:27:36.734Z,37.37
2023-01-21T02:30:37.752Z,40.47
2023-01-21T02:33:28.108Z,40.43
2023-01-21T02:36:02.749Z,35.10
2023-01-21T02:38:31.818Z,35.20
2023-01-21T02:41:04.100Z,43.37
2023-01-21T02:43:36.158Z,43.70
2023-01-21T02:46:08.960Z,42.37
2023-01-21T02:48:39.743Z,38.67
2023-01-21T02:51:05.953Z,38.67
2023-01-21T02:53:34.209Z,45.97
2023-01-21T02:56:03.405Z,38.70
2023-01-21T02:58:32.571Z,46.10
2023-01-21T03:01:12.403Z,38.67
2023-01-21T03:03:52.996Z,33.10
2023-01-21T03:06:38.201Z,39.23
2023-01-21T03:09:10.515Z,35.07
2023-01-21T03:11:36.686Z,36.90
2023-01-21T03:14:27.540Z,34.37
2023-01-21T03:16:58.193Z,37.17
2023-01-21T03:19:32.652Z,35.10
2023-01-21T03:22:00.755Z,39.13
2023-01-21T03:24:27.207Z,32.80
2023-01-21T03:26:56.350Z,33.27
2023-01-21T03:29:26.341Z,41.00
2023-01-21T03:31:56.387Z,39.03
2023-01-21T03:34:25.240Z,36.53
2023-01-21T03:36:54.161Z,35.33
2023-01-21T03:39:26.675Z,31.37
2023-01-21T03:41:52.806Z,38.73
2023-01-21T03:44:19.072Z,35.17
2023-01-21T03:46:49.106Z,36.10
2023-01-21T03:49:18.337Z,34.40
2023-01-21T03:51:49.129Z,35.33
2023-01-21T03:54:15.274Z,37.33
2023-01-21T03:56:41.403Z,36.27
2023-01-21T03:59:08.275Z,34.77
2023-01-21T04:01:34.404Z,34.83
2023-01-21T04:04:00.511Z,32.90
2023-01-21T04:06:26.664Z,32.03
2023-01-21T04:08:53.434Z,34.10
2023-01-21T04:11:19.553Z,36.23
2023-01-21T04:13:45.661Z,36.77
2023-01-21T04:16:11.897Z,36.60
2023-01-21T04:18:38.010Z,37.43
2023-01-21T04:21:04.183Z,36.57
2023-01-21T04:23:30.386Z,37.50
2023-01-21T04:25:57.124Z,41.87
2023-01-21T04:28:23.414Z,38.40
2023-01-21T04:30:49.636Z,37.03
2023-01-21T04:33:16.739Z,35.63
2023-01-21T04:35:42.857Z,38.27
2023-01-21T04:38:08.949Z,39.33
2023-01-21T04:40:35.060Z,31.33
2023-01-21T04:43:01.800Z,39.30
2023-01-21T04:45:27.912Z,37.10
2023-01-21T04:47:54.012Z,36.77
2023-01-21T04:50:20.134Z,36.43
2023-01-21T04:52:46.242Z,37.60
2023-01-21T04:55:12.343Z,40.43
2023-01-21T04:57:38.514Z,37.63
2023-01-21T05:00:07.340Z,36.73
2023-01-21T05:02:33.676Z,39.07
2023-01-21T05:04:59.910Z,36.40
2023-01-21T05:07:26.202Z,38.40
2023-01-21T05:09:52.322Z,39.17
2023-01-21T05:12:18.557Z,43.63
2023-01-21T05:14:44.656Z,35.90
2023-01-21T05:17:11.408Z,38.43
2023-01-21T05:19:37.506Z,34.80
2023-01-21T05:22:03.658Z,40.57
2023-01-21T05:24:30.302Z,40.50
2023-01-21T05:26:56.425Z,40.33
2023-01-21T05:29:22.536Z,43.00
2023-01-21T05:31:48.903Z,36.90
2023-01-21T05:34:15.708Z,37.13
2023-01-21T05:36:41.812Z,38.60
2023-01-21T05:39:08.009Z,37.10
2023-01-21T05:41:34.112Z,38.37
2023-01-21T05:44:00.210Z,42.67
2023-01-21T05:46:26.359Z,34.33
2023-01-21T05:48:52.463Z,41.97
2023-01-21T05:51:19.278Z,35.40
2023-01-21T05:53:45.772Z,37.07
2023-01-21T05:56:12.140Z,38.13
2023-01-21T05:58:38.245Z,35.07
2023-01-21T06:01:04.682Z,34.30
2023-01-21T06:03:30.904Z,40.53
2023-01-21T06:05:57.071Z,42.87
2023-01-21T06:08:23.789Z,36.93
2023-01-21T06:10:49.939Z,40.10
2023-01-21T06:13:16.244Z,40.60
2023-01-21T06:15:42.635Z,41.73
2023-01-21T06:18:08.841Z,45.73
2023-01-21T06:20:35.964Z,44.80
2023-01-21T06:23:02.509Z,43.00
2023-01-21T06:25:29.988Z,45.23
2023-01-21T06:27:56.631Z,43.20
2023-01-21T06:30:23.330Z,46.93
2023-01-21T06:32:49.598Z,48.00
2023-01-21T06:35:16.137Z,45.50
2023-01-21T06:37:42.404Z,49.33
2023-01-21T06:40:09.994Z,47.63
2023-01-21T06:42:36.757Z,45.43
2023-01-21T06:45:03.236Z,51.50
2023-01-21T06:47:29.364Z,47.07
2023-01-21T06:49:55.485Z,51.30
2023-01-21T06:52:21.759Z,49.97
2023-01-21T06:54:47.878Z,52.07
2023-01-21T06:57:14.197Z,60.63
2023-01-21T06:59:40.936Z,53.07
2023-01-21T07:02:07.343Z,56.47
2023-01-21T07:04:33.464Z,57.67
2023-01-21T07:06:59.598Z,52.50
2023-01-21T07:09:25.813Z,50.90
2023-01-21T07:11:51.999Z,50.47
2023-01-21T07:14:18.131Z,53.00
2023-01-21T07:16:44.944Z,94.03
2023-01-21T07:19:11.235Z,51.43
2023-01-21T07:21:40.506Z,42.90
2023-01-21T07:24:07.142Z,46.53
2023-01-21T07:26:37.065Z,44.87
2023-01-21T07:29:03.790Z,50.23
2023-01-21T07:31:30.002Z,47.13
2023-01-21T07:33:56.795Z,49.17
2023-01-21T07:36:22.896Z,46.37
2023-01-21T07:38:49.007Z,49.50
2023-01-21T07:41:15.145Z,52.83
2023-01-21T07:43:41.276Z,60.30
2023-01-21T07:46:07.405Z,56.53
2023-01-21T07:48:33.499Z,57.03
2023-01-21T07:51:00.340Z,62.37
2023-01-21T07:53:26.821Z,63.37
2023-01-21T07:55:52.943Z,61.80
2023-01-21T07:58:19.045Z,57.17
2023-01-21T08:00:45.155Z,59.80
2023-01-21T08:03:11.282Z,61.60
2023-01-21T08:05:37.394Z,57.57
2023-01-21T08:08:04.577Z,57.53
2023-01-21T08:10:30.675Z,60.97
2023-01-21T08:12:56.789Z,58.67
2023-01-21T08:15:22.883Z,61.07
2023-01-21T08:17:49.796Z,61.07
2023-01-21T08:20:16.065Z,55.03
2023-01-21T08:22:42.188Z,57.10
2023-01-21T08:25:10.316Z,65.30
2023-01-21T08:27:36.423Z,70.47
2023-01-21T08:30:02.997Z,68.80
2023-01-21T08:32:29.781Z,67.77
2023-01-21T08:34:55.928Z,68.07
2023-01-21T08:37:22.123Z,70.37
2023-01-21T08:39:48.241Z,69.37
2023-01-21T08:42:14.980Z,62.23
2023-01-21T08:44:41.103Z,67.40
2023-01-21T08:47:07.220Z,69.30
2023-01-21T08:49:33.369Z,65.03
2023-01-21T08:51:59.768Z,66.73
2023-01-21T08:54:26.011Z,69.53
2023-01-21T08:56:52.177Z,73.63
2023-01-21T08:59:26.371Z,72.27
2023-01-21T09:01:52.525Z,74.57
2023-01-21T09:04:18.686Z,70.53
2023-01-21T09:06:44.806Z,71.87
2023-01-21T09:09:11.086Z,68.70
2023-01-21T09:11:37.219Z,69.80
2023-01-21T09:14:03.525Z,70.40
2023-01-21T09:16:31.139Z,71.23
2023-01-21T09:18:57.386Z,70.20
2023-01-21T09:21:23.537Z,77.23
2023-01-21T09:23:49.690Z,71.73
2023-01-21T09:26:16.925Z,67.70
2023-01-21T09:28:44.209Z,68.93
2023-01-21T09:31:12.304Z,68.97
2023-01-21T09:33:40.788Z,69.50
2023-01-21T09:36:09.903Z,63.83
2023-01-21T09:38:36.033Z,61.93
2023-01-21T09:41:10.937Z,63.93
2023-01-21T09:43:39.675Z,61.33
2023-01-21T09:46:11.739Z,58.60
2023-01-21T09:48:42.113Z,59.80
2023-01-21T09:51:15.371Z,64.33
2023-01-21T09:53:45.666Z,58.93
2023-01-21T09:56:17.481Z,57.97
2023-01-21T09:58:47.683Z,56.63
2023-01-21T10:01:19.226Z,51.67
2023-01-21T10:03:52.088Z,51.03
2023-01-21T10:06:25.073Z,57.10
2023-01-21T10:09:04.804Z,45.50
2023-01-21T10:11:39.917Z,44.17
2023-01-21T10:14:19.235Z,42.03
2023-01-21T10:16:53.237Z,45.97
2023-01-21T10:19:23.006Z,39.27
2023-01-21T10:21:53.180Z,38.17
2023-01-21T10:24:22.422Z,34.50
2023-01-21T10:26:50.811Z,35.87
2023-01-21T10:29:18.265Z,36.40
2023-01-21T10:31:49.380Z,34.47
2023-01-21T10:34:17.140Z,34.63
2023-01-21T10:36:52.187Z,37.67
2023-01-21T10:39:28.645Z,37.50
2023-01-21T10:42:03.823Z,34.63
2023-01-21T10:44:36.010Z,40.00
2023-01-21T10:47:07.574Z,39.90
2023-01-21T10:49:46.240Z,36.20
2023-01-21T10:52:17.432Z,38.47
2023-01-21T10:54:48.245Z,36.53
2023-01-21T10:57:24.316Z,39.63
2023-01-21T10:59:50.840Z,42.37
2023-01-21T11:02:21.704Z,37.63
2023-01-21T11:04:47.855Z,46.47
2023-01-21T11:07:17.550Z,40.27
2023-01-21T11:09:46.001Z,43.03
2023-01-21T11:12:16.096Z,37.17
2023-01-21T11:14:42.930Z,40.07
2023-01-21T11:17:09.673Z,38.87
2023-01-21T11:19:36.034Z,37.77
2023-01-21T11:22:03.727Z,42.53
2023-01-21T11:24:31.870Z,41.07
2023-01-21T11:26:59.809Z,38.10
2023-01-21T11:29:27.178Z,38.30
2023-01-21T11:32:01.762Z,41.23
2023-01-21T11:34:28.310Z,37.97
2023-01-21T11:36:56.154Z,40.40
2023-01-21T11:39:23.381Z,40.80
2023-01-21T11:41:52.021Z,40.00
2023-01-21T11:44:19.288Z,42.03
2023-01-21T11:46:45.461Z,46.10
2023-01-21T11:49:27.900Z,38.43
2023-01-21T11:52:14.754Z,39.90
2023-01-21T11:54:41.158Z,40.03
2023-01-21T11:57:20.427Z,37.70
2023-01-21T11:59:47.669Z,37.07
2023-01-21T12:02:17.490Z,39.03
2023-01-21T12:04:45.606Z,34.50
2023-01-21T12:07:17.834Z,36.27
2023-01-21T12:09:48.987Z,34.80
2023-01-21T12:12:26.418Z,36.30
2023-01-21T12:14:54.416Z,35.20
2023-01-21T12:17:31.387Z,34.20
2023-01-21T12:20:10.687Z,35.50
2023-01-21T12:22:45.810Z,34.73
2023-01-21T12:25:22.300Z,33.67
2023-01-21T12:28:02.617Z,36.77
2023-01-21T12:30:35.773Z,35.50
2023-01-21T12:33:04.802Z,34.20
2023-01-21T12:35:33.831Z,32.20
2023-01-21T12:38:02.633Z,31.13
2023-01-21T12:40:30.554Z,40.00
2023-01-21T12:43:01.872Z,36.33
2023-01-21T12:45:33.356Z,33.57
2023-01-21T12:48:03.039Z,31.93
2023-01-21T12:50:31.629Z,29.13
2023-01-21T12:53:05.066Z,36.23
2023-01-21T12:55:39.065Z,33.47
2023-01-21T12:58:11.404Z,33.63
2023-01-21T13:00:39.901Z,38.90
2023-01-21T13:03:16.051Z,39.50
2023-01-21T13:05:47.318Z,32.67
2023-01-21T13:08:31.109Z,35.63
2023-01-21T13:11:00.271Z,36.93
2023-01-21T13:13:30.035Z,36.67
2023-01-21T13:15:58.538Z,36.63
2023-01-21T13:18:28.795Z,36.00
2023-01-21T13:20:59.368Z,38.90
2023-01-21T13:23:30.028Z,43.73
2023-01-21T13:26:01.702Z,45.47
2023-01-21T13:28:32.554Z,38.60
2023-01-21T13:31:02.597Z,40.83
2023-01-21T13:33:35.347Z,37.87
2023-01-21T13:36:12.945Z,40.07
2023-01-21T13:38:43.794Z,45.47
2023-01-21T13:41:19.065Z,39.63
2023-01-21T13:43:54.824Z,41.10
2023-01-21T13:46:39.470Z,38.43
2023-01-21T13:49:17.046Z,32.70
2023-01-21T13:51:51.206Z,42.23
2023-01-21T13:54:38.049Z,47.70
2023-01-21T13:57:17.687Z,41.67
2023-01-21T13:59:48.348Z,38.83
2023-01-21T14:02:17.240Z,35.27
2023-01-21T14:04:46.666Z,42.00
2023-01-21T14:07:16.763Z,37.33
2023-01-21T14:09:47.265Z,39.67
2023-01-21T14:12:17.818Z,38.13
2023-01-21T14:14:59.982Z,36.30
2023-01-21T14:17:38.643Z,32.47
2023-01-21T14:20:16.848Z,30.90
2023-01-21T14:22:54.139Z,28.97
2023-01-21T14:25:31.230Z,27.17
2023-01-21T14:28:04.565Z,22.43
2023-01-21T14:30:38.851Z,26.20
2023-01-21T14:33:09.101Z,27.23
2023-01-21T14:35:41.451Z,22.37
2023-01-21T14:38:12.642Z,20.60
2023-01-21T14:40:45.000Z,24.07
2023-01-21T14:43:18.327Z,30.00
2023-01-21T14:45:53.167Z,23.53
2023-01-21T14:48:28.332Z,26.23
2023-01-21T14:50:57.436Z,24.23
2023-01-21T14:53:24.725Z,25.00
2023-01-21T14:56:16.954Z,26.80
2023-01-21T14:58:45.079Z,26.27
2023-01-21T15:01:24.532Z,32.50
2023-01-21T15:03:50.756Z,25.70
2023-01-21T15:13:44.929Z,28.43
2023-01-21T15:16:31.990Z,28.70
2023-01-21T15:19:18.115Z,28.83
2023-01-21T15:21:45.303Z,34.33
2023-01-21T15:24:23.714Z,32.70
2023-01-21T15:27:10.868Z,31.97
2023-01-21T15:29:40.268Z,35.10
2023-01-21T15:32:26.314Z,35.07
2023-01-21T15:34:55.053Z,31.80
2023-01-21T15:37:23.308Z,31.03
2023-01-21T15:39:51.497Z,28.73
2023-01-21T15:42:22.804Z,30.00
2023-01-21T15:45:20.569Z,26.30
2023-01-21T15:48:00.551Z,33.23
2023-01-21T15:50:30.371Z,32.00
2023-01-21T15:53:09.079Z,33.10
2023-01-21T15:55:49.488Z,32.60
2023-01-21T15:58:22.759Z,32.73
2023-01-21T16:00:53.459Z,30.70
2023-01-21T16:03:26.724Z,31.47
2023-01-21T16:05:58.757Z,29.47
2023-01-21T16:08:35.886Z,27.93
2023-01-21T16:11:12.589Z,29.53
2023-01-21T16:13:47.584Z,26.90
2023-01-21T16:16:22.570Z,28.97
2023-01-21T16:18:52.919Z,27.33
2023-01-21T16:21:22.078Z,25.97
2023-01-21T16:23:50.726Z,26.30
2023-01-21T16:26:24.128Z,26.83
2023-01-21T16:28:50.273Z,23.87
2023-01-21T16:31:16.559Z,25.70
2023-01-21T16:33:43.065Z,26.83
2023-01-21T16:36:13.366Z,24.17
2023-01-21T16:38:40.603Z,29.77
2023-01-21T16:41:23.481Z,29.47
2023-01-21T16:43:51.335Z,25.93
2023-01-21T16:46:19.131Z,25.80
2023-01-21T16:48:48.884Z,26.53
2023-01-21T16:51:17.761Z,28.27
2023-01-21T16:53:43.953Z,27.07
2023-01-21T16:56:24.231Z,27.97
2023-01-21T16:58:50.324Z,26.13
2023-01-21T17:01:17.392Z,25.63
2023-01-21T17:03:43.875Z,26.40
2023-01-21T17:06:13.796Z,28.47
2023-01-21T17:08:40.842Z,27.10
2023-01-21T17:11:09.210Z,26.83
2023-01-21T17:17:52.879Z,26.47
2023-01-21T17:20:36.483Z,23.43
2023-01-21T17:34:27.014Z,20.20
2023-01-21T17:36:56.258Z,22.37
2023-01-21T17:39:59.784Z,21.83
2023-01-21T17:42:30.181Z,26.00
2023-01-21T17:44:57.336Z,24.57
2023-01-21T17:47:26.251Z,21.70
2023-01-21T17:49:58.019Z,23.47
2023-01-21T17:52:24.607Z,19.20
2023-01-21T17:54:50.685Z,24.57
2023-01-21T17:57:33.057Z,28.27
2023-01-21T17:59:59.157Z,22.10
2023-01-21T18:02:25.387Z,19.53
2023-01-21T18:04:51.528Z,22.97
2023-01-21T18:07:21.493Z,23.30
2023-01-21T18:09:47.626Z,23.87
2023-01-21T18:12:13.734Z,20.10
2023-01-21T18:14:40.969Z,22.30
2023-01-21T18:17:10.551Z,25.47
2023-01-21T18:19:37.335Z,22.90
2023-01-21T18:22:05.028Z,29.53
2023-01-21T18:24:31.994Z,24.60
2023-01-21T18:26:59.722Z,24.30
2023-01-21T18:29:29.442Z,25.70
2023-01-21T18:31:55.577Z,24.17
2023-01-21T18:34:21.732Z,25.77
2023-01-21T18:36:48.101Z,24.10
2023-01-21T18:39:16.505Z,26.70
2023-01-21T18:41:43.755Z,23.87
2023-01-21T18:44:10.104Z,29.60
2023-01-21T18:46:40.677Z,23.90
2023-01-21T18:49:14.343Z,22.90
2023-01-21T18:51:40.539Z,24.10
2023-01-21T18:54:06.926Z,24.93
2023-01-21T18:56:33.153Z,22.80
2023-01-21T18:59:00.416Z,22.80
2023-01-21T19:01:26.650Z,26.40
2023-01-21T19:03:54.029Z,24.13
2023-01-21T19:06:20.632Z,24.00
2023-01-21T19:08:47.810Z,21.13
2023-01-21T19:11:14.040Z,24.33
2023-01-21T19:13:40.162Z,23.20
2023-01-21T19:16:13.610Z,23.67
2023-01-21T19:18:39.750Z,24.37
2023-01-21T19:21:07.388Z,26.67
2023-01-21T19:23:34.407Z,26.03
2023-01-21T19:26:00.629Z,25.10
2023-01-21T19:28:26.907Z,24.73
2023-01-21T19:30:54.469Z,23.77
2023-01-21T19:33:21.966Z,25.90
2023-01-21T19:35:48.521Z,28.37
2023-01-21T19:38:16.128Z,26.57
2023-01-21T19:40:42.390Z,25.73
2023-01-21T19:43:10.108Z,26.47
2023-01-21T19:45:36.230Z,28.30
2023-01-21T19:48:02.379Z,27.47
2023-01-21T19:50:29.421Z,30.37
2023-01-21T19:52:55.544Z,29.10
2023-01-21T19:55:22.917Z,32.00
2023-01-21T19:57:54.429Z,29.07
2023-01-21T20:00:23.779Z,25.73
2023-01-21T20:02:50.044Z,27.97
2023-01-21T20:05:16.552Z,27.83
2023-01-21T20:07:43.537Z,29.63
2023-01-21T20:10:13.067Z,30.10
2023-01-21T20:12:39.828Z,29.50
2023-01-21T20:15:07.168Z,30.67
2023-01-21T20:17:33.539Z,28.50
2023-01-21T20:19:59.684Z,30.73
2023-01-21T20:22:26.045Z,32.77
2023-01-21T20:24:52.987Z,32.87
2023-01-21T20:27:20.580Z,32.17
2023-01-21T20:29:55.588Z,36.60
2023-01-21T20:32:28.568Z,31.43
2023-01-21T20:34:54.769Z,35.47
2023-01-21T20:37:20.920Z,35.03
2023-01-21T20:39:47.135Z,36.40
2023-01-21T20:42:13.936Z,37.07
2023-01-21T20:44:40.036Z,35.83
2023-01-21T20:47:06.190Z,41.77
2023-01-21T20:49:32.305Z,41.90
2023-01-21T20:51:58.423Z,41.17
2023-01-21T20:54:25.896Z,41.87
2023-01-21T20:56:52.013Z,40.67
2023-01-21T20:59:20.954Z,42.50
2023-01-21T21:01:47.446Z,46.53
2023-01-21T21:04:13.865Z,43.37
2023-01-21T21:06:39.995Z,45.20
2023-01-21T21:09:06.107Z,40.90
2023-01-21T21:11:32.237Z,44.57
2023-01-21T21:14:00.915Z,45.37
2023-01-21T21:16:30.851Z,44.80
2023-01-21T21:18:57.390Z,50.53
2023-01-21T21:21:24.257Z,46.53
2023-01-21T21:23:50.730Z,45.53
2023-01-21T21:26:21.257Z,52.03
2023-01-21T21:28:47.843Z,50.60
2023-01-21T21:31:15.308Z,48.57
2023-01-21T21:33:42.530Z,51.27
2023-01-21T21:36:13.181Z,51.50
2023-01-21T21:38:39.274Z,51.10
2023-01-21T21:41:25.501Z,50.77
2023-01-21T21:43:51.355Z,49.43
2023-01-21T21:46:35.694Z,47.93
2023-01-21T21:49:02.443Z,49.87
2023-01-21T21:51:30.985Z,44.80
2023-01-21T21:53:57.135Z,55.10
2023-01-21T21:56:23.831Z,48.77
2023-01-21T21:58:50.670Z,44.70
2023-01-21T22:01:18.849Z,51.47
2023-01-21T22:03:45.147Z,50.13
2023-01-21T22:06:12.350Z,50.67
2023-01-21T22:08:40.338Z,45.60
2023-01-21T22:11:08.649Z,46.30
2023-01-21T22:13:36.727Z,41.53
2023-01-21T22:16:03.817Z,47.27
2023-01-21T22:18:30.521Z,51.40
2023-01-21T22:20:59.299Z,48.50
2023-01-21T22:23:26.086Z,43.83
2023-01-21T22:25:52.952Z,47.73
2023-01-21T22:28:19.421Z,45.87
2023-01-21T22:30:45.817Z,43.40
2023-01-21T22:33:12.009Z,43.13
2023-01-21T22:35:39.342Z,42.77
2023-01-21T22:38:05.804Z,42.17
2023-01-21T22:40:35.764Z,45.60
2023-01-21T22:43:01.895Z,43.73
2023-01-21T22:45:28.012Z,42.50
2023-01-21T22:47:54.111Z,41.47
2023-01-21T22:50:20.221Z,36.93
2023-01-21T22:52:46.333Z,38.13
2023-01-21T22:55:12.426Z,40.60
2023-01-21T22:57:39.656Z,35.97
2023-01-21T23:00:09.796Z,37.57
2023-01-21T23:02:35.922Z,34.13
2023-01-21T23:05:02.105Z,35.97
2023-01-21T23:07:28.262Z,32.93
2023-01-21T23:09:54.500Z,36.93
2023-01-21T23:12:20.641Z,35.40
2023-01-21T23:14:47.740Z,35.30
2023-01-21T23:17:15.843Z,36.53
2023-01-21T23:19:42.365Z,34.53
2023-01-21T23:22:08.641Z,36.27
2023-01-21T23:24:34.750Z,36.23
2023-01-21T23:27:00.933Z,37.63
2023-01-21T23:29:27.059Z,33.33
2023-01-21T23:31:53.854Z,38.50
2023-01-21T23:34:22.042Z,35.20
2023-01-21T23:36:48.353Z,36.97
2023-01-21T23:39:14.458Z,35.90
2023-01-21T23:41:40.569Z,36.33
2023-01-21T23:44:06.673Z,38.50
2023-01-21T23:46:33.045Z,38.37
2023-01-21T23:48:59.825Z,44.47
2023-01-21T23:51:25.921Z,40.43
2023-01-21T23:53:52.054Z,38.80
2023-01-21T23:56:20.372Z,38.17
2023-01-21T23:58:46.713Z,37.13
